sensor_id;sensor_type;location;lat;lon;timestamp;P1;durP1;ratioP1;P2;durP2;ratioP2
60006;SDS011;45863;50.336;3.536;2023-04-25T00:01:56;21.60;;;10.70;;
60006;SDS011;45863;50.336;3.536;2023-04-25T00:04:21;19.05;;;11.02;;
60006;SDS011;45863;50.336;3.536;2023-04-25T00:06:46;19.40;;;10.98;;
60006;SDS011;45863;50.336;3.536;2023-04-25T00:09:12;20.55;;;10.82;;
60006;SDS011;45863;50.336;3.536;2023-04-25T00:11:37;19.65;;;10.70;;
60006;SDS011;45863;50.336;3.536;2023-04-25T00:14:03;22.48;;;11.55;;
60006;SDS011;45863;50.336;3.536;2023-04-25T00:16:28;22.15;;;12.23;;
60006;SDS011;45863;50.336;3.536;2023-04-25T00:18:54;25.05;;;13.05;;
60006;SDS011;45863;50.336;3.536;2023-04-25T00:21:20;23.67;;;12.52;;
60006;SDS011;45863;50.336;3.536;2023-04-25T00:23:45;29.60;;;13.27;;
60006;SDS011;45863;50.336;3.536;2023-04-25T00:26:11;25.85;;;12.25;;
60006;SDS011;45863;50.336;3.536;2023-04-25T00:28:36;22.88;;;14.27;;
60006;SDS011;45863;50.336;3.536;2023-04-25T00:31:02;26.05;;;13.98;;
60006;SDS011;45863;50.336;3.536;2023-04-25T00:33:27;25.42;;;13.93;;
60006;SDS011;45863;50.336;3.536;2023-04-25T00:35:52;23.52;;;13.27;;
60006;SDS011;45863;50.336;3.536;2023-04-25T00:38:18;24.30;;;13.23;;
60006;SDS011;45863;50.336;3.536;2023-04-25T00:40:43;27.48;;;13.13;;
60006;SDS011;45863;50.336;3.536;2023-04-25T00:43:08;24.17;;;13.05;;
60006;SDS011;45863;50.336;3.536;2023-04-25T00:45:33;25.98;;;13.63;;
60006;SDS011;45863;50.336;3.536;2023-04-25T00:48:02;24.50;;;12.88;;
60006;SDS011;45863;50.336;3.536;2023-04-25T00:50:28;28.25;;;13.85;;
60006;SDS011;45863;50.336;3.536;2023-04-25T00:52:53;29.13;;;13.90;;
60006;SDS011;45863;50.336;3.536;2023-04-25T00:55:18;23.38;;;13.90;;
60006;SDS011;45863;50.336;3.536;2023-04-25T00:57:44;26.42;;;14.30;;
60006;SDS011;45863;50.336;3.536;2023-04-25T01:00:10;22.70;;;13.07;;
60006;SDS011;45863;50.336;3.536;2023-04-25T01:02:36;25.63;;;14.32;;
60006;SDS011;45863;50.336;3.536;2023-04-25T01:05:01;25.52;;;13.45;;
60006;SDS011;45863;50.336;3.536;2023-04-25T01:07:27;28.17;;;13.93;;
60006;SDS011;45863;50.336;3.536;2023-04-25T01:09:52;28.13;;;14.35;;
60006;SDS011;45863;50.336;3.536;2023-04-25T01:12:17;26.88;;;14.20;;
60006;SDS011;45863;50.336;3.536;2023-04-25T01:14:43;24.20;;;13.55;;
60006;SDS011;45863;50.336;3.536;2023-04-25T01:17:08;31.65;;;16.23;;
60006;SDS011;45863;50.336;3.536;2023-04-25T01:19:34;33.08;;;15.23;;
60006;SDS011;45863;50.336;3.536;2023-04-25T01:21:59;30.23;;;16.30;;
60006;SDS011;45863;50.336;3.536;2023-04-25T01:24:24;34.58;;;17.10;;
60006;SDS011;45863;50.336;3.536;2023-04-25T01:26:50;31.75;;;15.43;;
60006;SDS011;45863;50.336;3.536;2023-04-25T01:29:19;28.92;;;15.82;;
60006;SDS011;45863;50.336;3.536;2023-04-25T01:31:45;37.38;;;17.40;;
60006;SDS011;45863;50.336;3.536;2023-04-25T01:34:11;32.30;;;17.10;;
60006;SDS011;45863;50.336;3.536;2023-04-25T01:36:36;32.67;;;16.08;;
60006;SDS011;45863;50.336;3.536;2023-04-25T01:39:01;35.30;;;16.52;;
60006;SDS011;45863;50.336;3.536;2023-04-25T01:41:27;30.25;;;15.65;;
60006;SDS011;45863;50.336;3.536;2023-04-25T01:43:52;35.20;;;16.10;;
60006;SDS011;45863;50.336;3.536;2023-04-25T01:46:18;40.47;;;16.75;;
60006;SDS011;45863;50.336;3.536;2023-04-25T01:48:43;36.22;;;15.35;;
60006;SDS011;45863;50.336;3.536;2023-04-25T01:51:08;35.00;;;16.23;;
60006;SDS011;45863;50.336;3.536;2023-04-25T01:53:33;44.03;;;17.98;;
60006;SDS011;45863;50.336;3.536;2023-04-25T01:55:59;41.13;;;17.92;;
60006;SDS011;45863;50.336;3.536;2023-04-25T01:58:24;45.85;;;18.80;;
60006;SDS011;45863;50.336;3.536;2023-04-25T02:00:49;45.92;;;19.23;;
60006;SDS011;45863;50.336;3.536;2023-04-25T02:03:14;44.65;;;19.05;;
60006;SDS011;45863;50.336;3.536;2023-04-25T02:05:40;42.90;;;18.42;;
60006;SDS011;45863;50.336;3.536;2023-04-25T02:08:05;47.75;;;18.92;;
60006;SDS011;45863;50.336;3.536;2023-04-25T02:10:31;42.63;;;18.30;;
60006;SDS011;45863;50.336;3.536;2023-04-25T02:12:57;42.00;;;16.70;;
60006;SDS011;45863;50.336;3.536;2023-04-25T02:15:22;34.03;;;15.00;;
60006;SDS011;45863;50.336;3.536;2023-04-25T02:17:47;36.92;;;12.30;;
60006;SDS011;45863;50.336;3.536;2023-04-25T02:20:12;35.63;;;12.97;;
60006;SDS011;45863;50.336;3.536;2023-04-25T02:22:37;32.95;;;13.60;;
60006;SDS011;45863;50.336;3.536;2023-04-25T02:25:03;25.73;;;11.93;;
60006;SDS011;45863;50.336;3.536;2023-04-25T02:27:29;39.63;;;12.43;;
60006;SDS011;45863;50.336;3.536;2023-04-25T02:29:55;32.50;;;12.18;;
60006;SDS011;45863;50.336;3.536;2023-04-25T02:32:20;31.20;;;11.70;;
60006;SDS011;45863;50.336;3.536;2023-04-25T02:34:45;24.13;;;10.90;;
60006;SDS011;45863;50.336;3.536;2023-04-25T02:37:10;31.15;;;11.38;;
60006;SDS011;45863;50.336;3.536;2023-04-25T02:39:36;27.27;;;10.88;;
60006;SDS011;45863;50.336;3.536;2023-04-25T02:42:01;27.13;;;10.85;;
60006;SDS011;45863;50.336;3.536;2023-04-25T02:44:26;32.80;;;11.43;;
60006;SDS011;45863;50.336;3.536;2023-04-25T02:46:51;25.58;;;10.10;;
60006;SDS011;45863;50.336;3.536;2023-04-25T02:49:16;33.08;;;10.00;;
60006;SDS011;45863;50.336;3.536;2023-04-25T02:51:42;35.92;;;10.00;;
60006;SDS011;45863;50.336;3.536;2023-04-25T02:54:07;28.65;;;9.27;;
60006;SDS011;45863;50.336;3.536;2023-04-25T02:56:32;30.67;;;8.45;;
60006;SDS011;45863;50.336;3.536;2023-04-25T02:58:57;24.38;;;8.82;;
60006;SDS011;45863;50.336;3.536;2023-04-25T03:01:23;25.70;;;9.00;;
60006;SDS011;45863;50.336;3.536;2023-04-25T03:03:48;25.67;;;8.73;;
60006;SDS011;45863;50.336;3.536;2023-04-25T03:06:13;25.98;;;9.27;;
60006;SDS011;45863;50.336;3.536;2023-04-25T03:08:38;23.88;;;8.50;;
60006;SDS011;45863;50.336;3.536;2023-04-25T03:11:04;30.08;;;8.82;;
60006;SDS011;45863;50.336;3.536;2023-04-25T03:13:29;25.85;;;8.40;;
60006;SDS011;45863;50.336;3.536;2023-04-25T03:15:55;23.20;;;9.25;;
60006;SDS011;45863;50.336;3.536;2023-04-25T03:18:20;22.33;;;8.63;;
60006;SDS011;45863;50.336;3.536;2023-04-25T03:20:45;20.65;;;7.85;;
60006;SDS011;45863;50.336;3.536;2023-04-25T03:23:11;26.75;;;8.88;;
60006;SDS011;45863;50.336;3.536;2023-04-25T03:25:36;22.98;;;8.60;;
60006;SDS011;45863;50.336;3.536;2023-04-25T03:28:02;22.35;;;8.98;;
60006;SDS011;45863;50.336;3.536;2023-04-25T03:30:27;26.42;;;9.18;;
60006;SDS011;45863;50.336;3.536;2023-04-25T03:32:52;22.80;;;9.15;;
60006;SDS011;45863;50.336;3.536;2023-04-25T03:35:17;26.87;;;8.87;;
60006;SDS011;45863;50.336;3.536;2023-04-25T03:37:42;20.73;;;8.80;;
60006;SDS011;45863;50.336;3.536;2023-04-25T03:40:11;23.73;;;9.07;;
60006;SDS011;45863;50.336;3.536;2023-04-25T03:42:36;24.20;;;10.10;;
60006;SDS011;45863;50.336;3.536;2023-04-25T03:45:02;31.52;;;10.45;;
60006;SDS011;45863;50.336;3.536;2023-04-25T03:47:27;25.95;;;9.90;;
60006;SDS011;45863;50.336;3.536;2023-04-25T03:49:52;25.58;;;9.25;;
60006;SDS011;45863;50.336;3.536;2023-04-25T03:52:18;19.83;;;8.77;;
60006;SDS011;45863;50.336;3.536;2023-04-25T03:54:43;19.95;;;8.95;;
60006;SDS011;45863;50.336;3.536;2023-04-25T03:57:08;22.67;;;9.80;;
60006;SDS011;45863;50.336;3.536;2023-04-25T03:59:33;24.77;;;9.68;;
60006;SDS011;45863;50.336;3.536;2023-04-25T04:01:59;27.52;;;9.32;;
60006;SDS011;45863;50.336;3.536;2023-04-25T04:04:24;28.73;;;9.82;;
60006;SDS011;45863;50.336;3.536;2023-04-25T04:06:49;22.33;;;10.10;;
60006;SDS011;45863;50.336;3.536;2023-04-25T04:09:15;26.98;;;9.88;;
60006;SDS011;45863;50.336;3.536;2023-04-25T04:11:41;20.92;;;9.02;;
60006;SDS011;45863;50.336;3.536;2023-04-25T04:14:06;26.05;;;9.55;;
60006;SDS011;45863;50.336;3.536;2023-04-25T04:16:31;23.02;;;8.40;;
60006;SDS011;45863;50.336;3.536;2023-04-25T04:18:57;21.10;;;8.82;;
60006;SDS011;45863;50.336;3.536;2023-04-25T04:21:22;29.48;;;10.13;;
60006;SDS011;45863;50.336;3.536;2023-04-25T04:23:47;21.63;;;8.55;;
60006;SDS011;45863;50.336;3.536;2023-04-25T04:26:13;23.25;;;9.73;;
60006;SDS011;45863;50.336;3.536;2023-04-25T04:28:40;24.33;;;10.98;;
60006;SDS011;45863;50.336;3.536;2023-04-25T04:31:05;31.70;;;12.02;;
60006;SDS011;45863;50.336;3.536;2023-04-25T04:33:32;33.78;;;12.52;;
60006;SDS011;45863;50.336;3.536;2023-04-25T04:35:57;33.08;;;11.77;;
60006;SDS011;45863;50.336;3.536;2023-04-25T04:38:23;30.02;;;10.95;;
60006;SDS011;45863;50.336;3.536;2023-04-25T04:40:48;27.75;;;9.73;;
60006;SDS011;45863;50.336;3.536;2023-04-25T04:43:15;26.65;;;9.60;;
60006;SDS011;45863;50.336;3.536;2023-04-25T04:45:42;32.25;;;10.05;;
60006;SDS011;45863;50.336;3.536;2023-04-25T04:48:08;26.50;;;10.07;;
60006;SDS011;45863;50.336;3.536;2023-04-25T04:50:33;28.25;;;10.55;;
60006;SDS011;45863;50.336;3.536;2023-04-25T04:52:59;26.83;;;10.73;;
60006;SDS011;45863;50.336;3.536;2023-04-25T04:55:24;28.45;;;10.15;;
60006;SDS011;45863;50.336;3.536;2023-04-25T04:57:49;28.70;;;10.07;;
60006;SDS011;45863;50.336;3.536;2023-04-25T05:00:15;59.67;;;31.50;;
60006;SDS011;45863;50.336;3.536;2023-04-25T05:02:40;30.23;;;11.50;;
60006;SDS011;45863;50.336;3.536;2023-04-25T05:05:06;69.55;;;36.03;;
60006;SDS011;45863;50.336;3.536;2023-04-25T05:07:31;58.38;;;28.20;;
60006;SDS011;45863;50.336;3.536;2023-04-25T05:09:56;40.90;;;20.00;;
60006;SDS011;45863;50.336;3.536;2023-04-25T05:12:21;28.27;;;10.13;;
60006;SDS011;45863;50.336;3.536;2023-04-25T05:14:46;33.10;;;14.38;;
60006;SDS011;45863;50.336;3.536;2023-04-25T05:17:12;30.20;;;11.90;;
60006;SDS011;45863;50.336;3.536;2023-04-25T05:19:37;26.23;;;9.43;;
60006;SDS011;45863;50.336;3.536;2023-04-25T05:22:04;27.05;;;11.40;;
60006;SDS011;45863;50.336;3.536;2023-04-25T05:24:29;30.27;;;10.20;;
60006;SDS011;45863;50.336;3.536;2023-04-25T05:26:55;26.50;;;10.57;;
60006;SDS011;45863;50.336;3.536;2023-04-25T05:29:20;53.13;;;27.80;;
60006;SDS011;45863;50.336;3.536;2023-04-25T05:31:46;29.98;;;13.50;;
60006;SDS011;45863;50.336;3.536;2023-04-25T05:34:12;44.22;;;17.27;;
60006;SDS011;45863;50.336;3.536;2023-04-25T05:36:37;28.50;;;12.73;;
60006;SDS011;45863;50.336;3.536;2023-04-25T05:39:03;39.53;;;18.70;;
60006;SDS011;45863;50.336;3.536;2023-04-25T05:41:29;36.30;;;17.73;;
60006;SDS011;45863;50.336;3.536;2023-04-25T05:43:54;36.10;;;16.75;;
60006;SDS011;45863;50.336;3.536;2023-04-25T05:46:19;84.40;;;45.03;;
60006;SDS011;45863;50.336;3.536;2023-04-25T05:48:45;40.97;;;19.17;;
60006;SDS011;45863;50.336;3.536;2023-04-25T05:51:10;35.55;;;17.08;;
60006;SDS011;45863;50.336;3.536;2023-04-25T05:53:35;49.00;;;21.63;;
60006;SDS011;45863;50.336;3.536;2023-04-25T05:56:00;62.45;;;31.10;;
60006;SDS011;45863;50.336;3.536;2023-04-25T05:58:26;44.13;;;17.67;;
60006;SDS011;45863;50.336;3.536;2023-04-25T06:00:51;41.70;;;18.48;;
60006;SDS011;45863;50.336;3.536;2023-04-25T06:03:16;153.52;;;58.78;;
60006;SDS011;45863;50.336;3.536;2023-04-25T06:05:42;78.43;;;26.98;;
60006;SDS011;45863;50.336;3.536;2023-04-25T06:08:07;52.70;;;22.67;;
60006;SDS011;45863;50.336;3.536;2023-04-25T06:10:32;50.85;;;20.05;;
60006;SDS011;45863;50.336;3.536;2023-04-25T06:12:58;29.77;;;10.70;;
60006;SDS011;45863;50.336;3.536;2023-04-25T06:15:23;34.37;;;12.07;;
60006;SDS011;45863;50.336;3.536;2023-04-25T06:17:48;33.67;;;12.60;;
60006;SDS011;45863;50.336;3.536;2023-04-25T06:20:14;43.55;;;16.02;;
60006;SDS011;45863;50.336;3.536;2023-04-25T06:22:39;48.13;;;19.40;;
60006;SDS011;45863;50.336;3.536;2023-04-25T06:25:04;30.85;;;10.43;;
60006;SDS011;45863;50.336;3.536;2023-04-25T06:27:30;55.40;;;21.98;;
60006;SDS011;45863;50.336;3.536;2023-04-25T06:29:55;31.75;;;11.88;;
60006;SDS011;45863;50.336;3.536;2023-04-25T06:32:20;37.83;;;12.70;;
60006;SDS011;45863;50.336;3.536;2023-04-25T06:34:45;30.80;;;10.95;;
60006;SDS011;45863;50.336;3.536;2023-04-25T06:37:11;27.92;;;10.48;;
60006;SDS011;45863;50.336;3.536;2023-04-25T06:39:36;33.42;;;9.75;;
60006;SDS011;45863;50.336;3.536;2023-04-25T06:42:01;44.00;;;14.07;;
60006;SDS011;45863;50.336;3.536;2023-04-25T06:44:27;59.53;;;19.52;;
60006;SDS011;45863;50.336;3.536;2023-04-25T06:46:54;26.02;;;8.23;;
60006;SDS011;45863;50.336;3.536;2023-04-25T06:49:19;49.42;;;17.20;;
60006;SDS011;45863;50.336;3.536;2023-04-25T06:51:44;34.58;;;8.32;;
60006;SDS011;45863;50.336;3.536;2023-04-25T06:54:10;45.38;;;15.68;;
60006;SDS011;45863;50.336;3.536;2023-04-25T06:56:35;53.17;;;17.90;;
60006;SDS011;45863;50.336;3.536;2023-04-25T06:59:00;31.52;;;10.25;;
60006;SDS011;45863;50.336;3.536;2023-04-25T07:01:26;48.72;;;14.05;;
60006;SDS011;45863;50.336;3.536;2023-04-25T07:03:51;35.55;;;12.65;;
60006;SDS011;45863;50.336;3.536;2023-04-25T07:06:16;41.42;;;14.48;;
60006;SDS011;45863;50.336;3.536;2023-04-25T07:08:41;29.48;;;8.40;;
60006;SDS011;45863;50.336;3.536;2023-04-25T07:11:06;36.58;;;12.73;;
60006;SDS011;45863;50.336;3.536;2023-04-25T07:13:32;41.85;;;13.68;;
60006;SDS011;45863;50.336;3.536;2023-04-25T07:15:57;44.85;;;13.98;;
60006;SDS011;45863;50.336;3.536;2023-04-25T07:18:22;92.30;;;31.45;;
60006;SDS011;45863;50.336;3.536;2023-04-25T07:20:48;27.63;;;10.43;;
60006;SDS011;45863;50.336;3.536;2023-04-25T07:23:13;20.10;;;6.10;;
60006;SDS011;45863;50.336;3.536;2023-04-25T07:25:38;29.35;;;9.90;;
60006;SDS011;45863;50.336;3.536;2023-04-25T07:28:04;26.90;;;8.00;;
60006;SDS011;45863;50.336;3.536;2023-04-25T07:30:29;42.72;;;9.35;;
60006;SDS011;45863;50.336;3.536;2023-04-25T07:32:55;23.13;;;6.95;;
60006;SDS011;45863;50.336;3.536;2023-04-25T07:35:20;30.65;;;6.47;;
60006;SDS011;45863;50.336;3.536;2023-04-25T07:37:46;28.27;;;8.00;;
60006;SDS011;45863;50.336;3.536;2023-04-25T07:40:11;36.80;;;10.00;;
60006;SDS011;45863;50.336;3.536;2023-04-25T07:42:37;23.52;;;5.70;;
60006;SDS011;45863;50.336;3.536;2023-04-25T07:45:02;27.40;;;6.10;;
60006;SDS011;45863;50.336;3.536;2023-04-25T07:47:28;26.73;;;7.90;;
60006;SDS011;45863;50.336;3.536;2023-04-25T07:49:53;21.30;;;5.97;;
60006;SDS011;45863;50.336;3.536;2023-04-25T07:52:19;18.42;;;5.25;;
60006;SDS011;45863;50.336;3.536;2023-04-25T07:54:44;15.02;;;5.45;;
60006;SDS011;45863;50.336;3.536;2023-04-25T07:57:09;21.73;;;5.57;;
60006;SDS011;45863;50.336;3.536;2023-04-25T07:59:34;17.17;;;5.20;;
60006;SDS011;45863;50.336;3.536;2023-04-25T08:02:00;19.20;;;5.57;;
60006;SDS011;45863;50.336;3.536;2023-04-25T08:04:25;17.35;;;4.72;;
60006;SDS011;45863;50.336;3.536;2023-04-25T08:06:51;22.80;;;5.05;;
60006;SDS011;45863;50.336;3.536;2023-04-25T08:09:17;20.98;;;5.78;;
60006;SDS011;45863;50.336;3.536;2023-04-25T08:11:42;19.85;;;5.47;;
60006;SDS011;45863;50.336;3.536;2023-04-25T08:14:08;18.38;;;4.55;;
60006;SDS011;45863;50.336;3.536;2023-04-25T08:16:33;17.38;;;4.10;;
60006;SDS011;45863;50.336;3.536;2023-04-25T08:19:01;17.65;;;4.78;;
60006;SDS011;45863;50.336;3.536;2023-04-25T08:21:26;13.25;;;4.88;;
60006;SDS011;45863;50.336;3.536;2023-04-25T08:23:54;17.65;;;4.28;;
60006;SDS011;45863;50.336;3.536;2023-04-25T08:26:19;18.67;;;4.80;;
60006;SDS011;45863;50.336;3.536;2023-04-25T08:28:45;16.20;;;3.80;;
60006;SDS011;45863;50.336;3.536;2023-04-25T08:31:10;16.15;;;4.07;;
60006;SDS011;45863;50.336;3.536;2023-04-25T08:33:36;19.88;;;4.00;;
60006;SDS011;45863;50.336;3.536;2023-04-25T08:36:01;13.70;;;3.47;;
60006;SDS011;45863;50.336;3.536;2023-04-25T08:38:27;21.08;;;4.03;;
60006;SDS011;45863;50.336;3.536;2023-04-25T08:40:52;13.90;;;3.60;;
60006;SDS011;45863;50.336;3.536;2023-04-25T08:43:19;14.50;;;3.47;;
60006;SDS011;45863;50.336;3.536;2023-04-25T08:45:45;14.90;;;3.78;;
60006;SDS011;45863;50.336;3.536;2023-04-25T08:48:11;19.85;;;4.03;;
60006;SDS011;45863;50.336;3.536;2023-04-25T08:50:39;13.77;;;4.20;;
60006;SDS011;45863;50.336;3.536;2023-04-25T08:53:04;16.88;;;4.03;;
60006;SDS011;45863;50.336;3.536;2023-04-25T08:55:31;14.57;;;3.95;;
60006;SDS011;45863;50.336;3.536;2023-04-25T08:57:59;14.40;;;3.58;;
60006;SDS011;45863;50.336;3.536;2023-04-25T09:00:25;14.02;;;4.97;;
60006;SDS011;45863;50.336;3.536;2023-04-25T09:02:50;12.55;;;3.70;;
60006;SDS011;45863;50.336;3.536;2023-04-25T09:05:16;11.82;;;3.38;;
60006;SDS011;45863;50.336;3.536;2023-04-25T09:07:41;16.02;;;3.28;;
60006;SDS011;45863;50.336;3.536;2023-04-25T09:10:07;12.75;;;3.70;;
60006;SDS011;45863;50.336;3.536;2023-04-25T09:12:32;15.70;;;3.35;;
60006;SDS011;45863;50.336;3.536;2023-04-25T09:15:05;12.70;;;4.32;;
60006;SDS011;45863;50.336;3.536;2023-04-25T09:17:31;14.63;;;3.72;;
60006;SDS011;45863;50.336;3.536;2023-04-25T09:20:05;14.38;;;3.97;;
60006;SDS011;45863;50.336;3.536;2023-04-25T09:22:30;10.38;;;3.35;;
60006;SDS011;45863;50.336;3.536;2023-04-25T09:24:55;13.32;;;3.97;;
60006;SDS011;45863;50.336;3.536;2023-04-25T09:27:21;11.70;;;3.40;;
60006;SDS011;45863;50.336;3.536;2023-04-25T09:29:56;11.85;;;3.85;;
60006;SDS011;45863;50.336;3.536;2023-04-25T09:32:22;12.50;;;3.58;;
60006;SDS011;45863;50.336;3.536;2023-04-25T09:34:48;12.20;;;3.30;;
60006;SDS011;45863;50.336;3.536;2023-04-25T09:37:21;10.73;;;3.25;;
60006;SDS011;45863;50.336;3.536;2023-04-25T09:40:05;9.88;;;3.10;;
60006;SDS011;45863;50.336;3.536;2023-04-25T09:42:32;11.23;;;2.70;;
60006;SDS011;45863;50.336;3.536;2023-04-25T09:44:59;12.82;;;3.97;;
60006;SDS011;45863;50.336;3.536;2023-04-25T09:47:26;15.43;;;3.65;;
60006;SDS011;45863;50.336;3.536;2023-04-25T09:49:53;12.23;;;3.47;;
60006;SDS011;45863;50.336;3.536;2023-04-25T09:52:20;10.32;;;3.17;;
60006;SDS011;45863;50.336;3.536;2023-04-25T09:54:47;11.35;;;3.33;;
60006;SDS011;45863;50.336;3.536;2023-04-25T09:57:13;10.80;;;3.22;;
60006;SDS011;45863;50.336;3.536;2023-04-25T09:59:39;9.35;;;3.38;;
60006;SDS011;45863;50.336;3.536;2023-04-25T10:02:07;9.65;;;3.08;;
60006;SDS011;45863;50.336;3.536;2023-04-25T10:04:33;9.13;;;2.72;;
60006;SDS011;45863;50.336;3.536;2023-04-25T10:06:59;8.98;;;2.78;;
60006;SDS011;45863;50.336;3.536;2023-04-25T10:09:25;9.68;;;2.95;;
60006;SDS011;45863;50.336;3.536;2023-04-25T10:11:50;12.00;;;2.92;;
60006;SDS011;45863;50.336;3.536;2023-04-25T10:14:17;8.85;;;2.83;;
60006;SDS011;45863;50.336;3.536;2023-04-25T10:16:42;12.60;;;3.42;;
60006;SDS011;45863;50.336;3.536;2023-04-25T10:19:09;9.30;;;2.53;;
60006;SDS011;45863;50.336;3.536;2023-04-25T10:21:34;7.68;;;2.55;;
60006;SDS011;45863;50.336;3.536;2023-04-25T10:24:01;12.10;;;2.70;;
60006;SDS011;45863;50.336;3.536;2023-04-25T10:26:26;14.43;;;3.15;;
60006;SDS011;45863;50.336;3.536;2023-04-25T10:28:56;13.93;;;3.17;;
60006;SDS011;45863;50.336;3.536;2023-04-25T10:31:24;9.98;;;3.47;;
60006;SDS011;45863;50.336;3.536;2023-04-25T10:33:49;11.02;;;3.35;;
60006;SDS011;45863;50.336;3.536;2023-04-25T10:36:17;12.55;;;3.45;;
60006;SDS011;45863;50.336;3.536;2023-04-25T10:38:43;13.18;;;3.70;;
60006;SDS011;45863;50.336;3.536;2023-04-25T10:41:09;11.05;;;3.38;;
60006;SDS011;45863;50.336;3.536;2023-04-25T10:43:35;11.52;;;3.28;;
60006;SDS011;45863;50.336;3.536;2023-04-25T10:48:38;11.93;;;2.70;;
60006;SDS011;45863;50.336;3.536;2023-04-25T10:51:14;13.57;;;3.22;;
60006;SDS011;45863;50.336;3.536;2023-04-25T10:53:40;13.60;;;3.25;;
60006;SDS011;45863;50.336;3.536;2023-04-25T10:56:09;12.40;;;3.30;;
60006;SDS011;45863;50.336;3.536;2023-04-25T10:58:34;13.05;;;3.47;;
60006;SDS011;45863;50.336;3.536;2023-04-25T11:01:00;9.63;;;3.35;;
60006;SDS011;45863;50.336;3.536;2023-04-25T11:03:26;7.85;;;2.58;;
60006;SDS011;45863;50.336;3.536;2023-04-25T11:05:51;10.00;;;2.70;;
60006;SDS011;45863;50.336;3.536;2023-04-25T11:08:16;8.15;;;2.30;;
60006;SDS011;45863;50.336;3.536;2023-04-25T11:10:46;8.60;;;2.92;;
60006;SDS011;45863;50.336;3.536;2023-04-25T11:13:12;7.40;;;2.60;;
60006;SDS011;45863;50.336;3.536;2023-04-25T11:15:37;8.90;;;2.73;;
60006;SDS011;45863;50.336;3.536;2023-04-25T11:18:02;6.50;;;2.20;;
60006;SDS011;45863;50.336;3.536;2023-04-25T11:20:28;6.60;;;2.30;;
60006;SDS011;45863;50.336;3.536;2023-04-25T11:22:53;8.98;;;2.92;;
60006;SDS011;45863;50.336;3.536;2023-04-25T11:25:18;7.72;;;2.22;;
60006;SDS011;45863;50.336;3.536;2023-04-25T11:27:54;7.38;;;2.40;;
60006;SDS011;45863;50.336;3.536;2023-04-25T11:30:20;9.20;;;2.53;;
60006;SDS011;45863;50.336;3.536;2023-04-25T11:32:45;8.52;;;2.13;;
60006;SDS011;45863;50.336;3.536;2023-04-25T11:35:11;9.07;;;2.30;;
60006;SDS011;45863;50.336;3.536;2023-04-25T11:37:38;6.93;;;2.13;;
60006;SDS011;45863;50.336;3.536;2023-04-25T11:40:04;7.38;;;2.70;;
60006;SDS011;45863;50.336;3.536;2023-04-25T11:42:31;6.90;;;2.40;;
60006;SDS011;45863;50.336;3.536;2023-04-25T11:44:56;6.85;;;1.95;;
60006;SDS011;45863;50.336;3.536;2023-04-25T11:47:27;5.57;;;2.20;;
60006;SDS011;45863;50.336;3.536;2023-04-25T11:49:52;10.77;;;2.85;;
60006;SDS011;45863;50.336;3.536;2023-04-25T11:52:18;8.55;;;2.63;;
60006;SDS011;45863;50.336;3.536;2023-04-25T11:54:44;9.03;;;3.10;;
60006;SDS011;45863;50.336;3.536;2023-04-25T11:57:09;11.85;;;2.65;;
60006;SDS011;45863;50.336;3.536;2023-04-25T11:59:35;12.23;;;2.70;;
60006;SDS011;45863;50.336;3.536;2023-04-25T12:02:00;8.75;;;2.70;;
60006;SDS011;45863;50.336;3.536;2023-04-25T12:04:29;9.10;;;2.80;;
60006;SDS011;45863;50.336;3.536;2023-04-25T12:06:54;8.48;;;2.70;;
60006;SDS011;45863;50.336;3.536;2023-04-25T12:09:21;10.98;;;2.83;;
60006;SDS011;45863;50.336;3.536;2023-04-25T12:14:12;12.27;;;2.90;;
60006;SDS011;45863;50.336;3.536;2023-04-25T12:16:44;12.43;;;4.15;;
60006;SDS011;45863;50.336;3.536;2023-04-25T12:19:09;11.18;;;4.68;;
60006;SDS011;45863;50.336;3.536;2023-04-25T12:21:35;17.02;;;3.85;;
60006;SDS011;45863;50.336;3.536;2023-04-25T12:24:13;13.77;;;3.67;;
60006;SDS011;45863;50.336;3.536;2023-04-25T12:26:49;11.93;;;3.40;;
60006;SDS011;45863;50.336;3.536;2023-04-25T12:29:24;9.13;;;3.10;;
60006;SDS011;45863;50.336;3.536;2023-04-25T12:31:50;9.07;;;3.05;;
60006;SDS011;45863;50.336;3.536;2023-04-25T12:34:16;13.63;;;3.15;;
60006;SDS011;45863;50.336;3.536;2023-04-25T12:36:41;12.68;;;2.72;;
60006;SDS011;45863;50.336;3.536;2023-04-25T12:39:07;10.80;;;3.07;;
60006;SDS011;45863;50.336;3.536;2023-04-25T12:41:33;12.70;;;2.58;;
60006;SDS011;45863;50.336;3.536;2023-04-25T12:43:58;9.55;;;2.75;;
60006;SDS011;45863;50.336;3.536;2023-04-25T12:46:23;10.03;;;3.07;;
60006;SDS011;45863;50.336;3.536;2023-04-25T12:48:49;12.27;;;2.92;;
60006;SDS011;45863;50.336;3.536;2023-04-25T12:51:15;10.10;;;2.08;;
60006;SDS011;45863;50.336;3.536;2023-04-25T12:53:40;11.23;;;2.42;;
60006;SDS011;45863;50.336;3.536;2023-04-25T12:56:06;7.57;;;2.10;;
60006;SDS011;45863;50.336;3.536;2023-04-25T12:58:31;9.35;;;3.03;;
60006;SDS011;45863;50.336;3.536;2023-04-25T13:00:58;8.75;;;2.15;;
60006;SDS011;45863;50.336;3.536;2023-04-25T13:03:23;8.70;;;2.10;;
60006;SDS011;45863;50.336;3.536;2023-04-25T13:05:49;7.82;;;2.20;;
60006;SDS011;45863;50.336;3.536;2023-04-25T13:08:15;7.85;;;2.22;;
60006;SDS011;45863;50.336;3.536;2023-04-25T13:10:40;10.10;;;2.47;;
60006;SDS011;45863;50.336;3.536;2023-04-25T13:13:06;10.45;;;2.10;;
60006;SDS011;45863;50.336;3.536;2023-04-25T13:15:32;10.13;;;2.72;;
60006;SDS011;45863;50.336;3.536;2023-04-25T13:17:57;9.45;;;2.40;;
60006;SDS011;45863;50.336;3.536;2023-04-25T13:20:22;8.13;;;2.30;;
60006;SDS011;45863;50.336;3.536;2023-04-25T13:22:47;6.07;;;1.70;;
60006;SDS011;45863;50.336;3.536;2023-04-25T13:25:13;7.97;;;2.13;;
60006;SDS011;45863;50.336;3.536;2023-04-25T13:27:38;7.00;;;2.10;;
60006;SDS011;45863;50.336;3.536;2023-04-25T13:30:05;6.05;;;1.48;;
60006;SDS011;45863;50.336;3.536;2023-04-25T13:32:35;6.57;;;2.03;;
60006;SDS011;45863;50.336;3.536;2023-04-25T13:35:01;7.85;;;1.98;;
60006;SDS011;45863;50.336;3.536;2023-04-25T13:37:27;8.50;;;2.40;;
60006;SDS011;45863;50.336;3.536;2023-04-25T13:39:52;7.05;;;2.17;;
60006;SDS011;45863;50.336;3.536;2023-04-25T13:42:18;7.50;;;1.95;;
60006;SDS011;45863;50.336;3.536;2023-04-25T13:44:44;4.40;;;2.00;;
60006;SDS011;45863;50.336;3.536;2023-04-25T13:47:09;6.47;;;1.90;;
60006;SDS011;45863;50.336;3.536;2023-04-25T13:49:34;6.73;;;2.10;;
60006;SDS011;45863;50.336;3.536;2023-04-25T13:51:59;9.30;;;2.10;;
60006;SDS011;45863;50.336;3.536;2023-04-25T13:54:25;10.93;;;2.75;;
60006;SDS011;45863;50.336;3.536;2023-04-25T13:56:50;7.07;;;2.35;;
60006;SDS011;45863;50.336;3.536;2023-04-25T13:59:16;4.75;;;1.73;;
60006;SDS011;45863;50.336;3.536;2023-04-25T14:01:42;6.25;;;1.90;;
60006;SDS011;45863;50.336;3.536;2023-04-25T14:04:07;11.25;;;2.00;;
60006;SDS011;45863;50.336;3.536;2023-04-25T14:06:32;7.65;;;1.70;;
60006;SDS011;45863;50.336;3.536;2023-04-25T14:08:58;7.40;;;2.03;;
60006;SDS011;45863;50.336;3.536;2023-04-25T14:11:25;6.50;;;1.70;;
60006;SDS011;45863;50.336;3.536;2023-04-25T14:13:50;10.93;;;2.20;;
60006;SDS011;45863;50.336;3.536;2023-04-25T14:16:16;7.93;;;2.33;;
60006;SDS011;45863;50.336;3.536;2023-04-25T14:18:41;9.52;;;2.72;;
60006;SDS011;45863;50.336;3.536;2023-04-25T14:21:06;8.27;;;2.73;;
60006;SDS011;45863;50.336;3.536;2023-04-25T14:23:31;9.88;;;2.38;;
60006;SDS011;45863;50.336;3.536;2023-04-25T14:25:57;8.53;;;2.30;;
60006;SDS011;45863;50.336;3.536;2023-04-25T14:28:22;7.03;;;2.40;;